sensor_id;sensor_type;location;lat;lon;timestamp;P1;durP1;ratioP1;P2;durP2;ratioP2
21213;SDS011;10764;50.850;2.904;2023-12-04T00:00:33;1232.32;;;999.90;;
21213;SDS011;10764;50.850;2.904;2023-12-04T00:03:00;1236.88;;;999.90;;
21213;SDS011;10764;50.850;2.904;2023-12-04T00:05:27;1237.15;;;999.90;;
21213;SDS011;10764;50.850;2.904;2023-12-04T00:07:54;1237.10;;;999.90;;
21213;SDS011;10764;50.850;2.904;2023-12-04T00:10:21;1235.10;;;999.90;;
21213;SDS011;10764;50.850;2.904;2023-12-04T00:12:48;1236.13;;;999.90;;
21213;SDS011;10764;50.850;2.904;2023-12-04T00:15:18;1236.65;;;999.90;;
21213;SDS011;10764;50.850;2.904;2023-12-04T00:17:45;1237.03;;;999.90;;
21213;SDS011;10764;50.850;2.904;2023-12-04T00:20:12;1237.72;;;999.90;;
21213;SDS011;10764;50.850;2.904;2023-12-04T00:22:39;1234.83;;;999.90;;
21213;SDS011;10764;50.850;2.904;2023-12-04T00:25:06;1237.97;;;999.90;;
21213;SDS011;10764;50.850;2.904;2023-12-04T00:27:33;1236.18;;;999.90;;
21213;SDS011;10764;50.850;2.904;2023-12-04T00:30:00;1235.30;;;999.90;;
21213;SDS011;10764;50.850;2.904;2023-12-04T00:32:30;1237.47;;;999.90;;
21213;SDS011;10764;50.850;2.904;2023-12-04T00:34:57;1233.45;;;999.90;;
21213;SDS011;10764;50.850;2.904;2023-12-04T00:37:25;1237.28;;;999.90;;
21213;SDS011;10764;50.850;2.904;2023-12-04T00:39:52;1237.63;;;999.90;;
21213;SDS011;10764;50.850;2.904;2023-12-04T00:42:19;1239.07;;;999.90;;
21213;SDS011;10764;50.850;2.904;2023-12-04T00:44:46;1239.40;;;999.90;;
21213;SDS011;10764;50.850;2.904;2023-12-04T00:47:13;1240.20;;;999.90;;
21213;SDS011;10764;50.850;2.904;2023-12-04T00:49:40;1236.00;;;999.90;;
21213;SDS011;10764;50.850;2.904;2023-12-04T00:52:07;1237.80;;;999.90;;
21213;SDS011;10764;50.850;2.904;2023-12-04T00:54:34;1240.22;;;999.90;;
21213;SDS011;10764;50.850;2.904;2023-12-04T00:57:01;1238.50;;;999.90;;
21213;SDS011;10764;50.850;2.904;2023-12-04T00:59:28;1241.57;;;999.90;;
21213;SDS011;10764;50.850;2.904;2023-12-04T01:01:55;1237.85;;;999.90;;
21213;SDS011;10764;50.850;2.904;2023-12-04T01:04:22;1238.82;;;999.90;;
21213;SDS011;10764;50.850;2.904;2023-12-04T01:06:49;1237.63;;;999.90;;
21213;SDS011;10764;50.850;2.904;2023-12-04T01:09:16;1238.60;;;999.90;;
21213;SDS011;10764;50.850;2.904;2023-12-04T01:11:43;1233.03;;;999.90;;
21213;SDS011;10764;50.850;2.904;2023-12-04T01:14:10;1235.78;;;999.90;;
21213;SDS011;10764;50.850;2.904;2023-12-04T01:16:37;1229.90;;;999.90;;
21213;SDS011;10764;50.850;2.904;2023-12-04T01:19:04;1233.40;;;999.90;;
21213;SDS011;10764;50.850;2.904;2023-12-04T01:21:31;1228.30;;;999.90;;
21213;SDS011;10764;50.850;2.904;2023-12-04T01:23:57;1231.97;;;999.90;;
21213;SDS011;10764;50.850;2.904;2023-12-04T01:26:24;1237.32;;;999.90;;
21213;SDS011;10764;50.850;2.904;2023-12-04T01:28:51;1236.03;;;999.90;;
21213;SDS011;10764;50.850;2.904;2023-12-04T01:31:18;1238.50;;;999.90;;
21213;SDS011;10764;50.850;2.904;2023-12-04T01:33:45;1244.70;;;999.90;;
21213;SDS011;10764;50.850;2.904;2023-12-04T01:36:12;1244.25;;;999.90;;
21213;SDS011;10764;50.850;2.904;2023-12-04T01:38:39;1244.22;;;999.90;;
21213;SDS011;10764;50.850;2.904;2023-12-04T01:41:06;1244.57;;;999.90;;
21213;SDS011;10764;50.850;2.904;2023-12-04T01:43:33;1244.45;;;999.90;;
21213;SDS011;10764;50.850;2.904;2023-12-04T01:46:01;1245.18;;;999.90;;
21213;SDS011;10764;50.850;2.904;2023-12-04T01:48:28;1245.63;;;999.90;;
21213;SDS011;10764;50.850;2.904;2023-12-04T01:50:55;1244.70;;;999.90;;
21213;SDS011;10764;50.850;2.904;2023-12-04T01:53:25;1248.05;;;999.90;;
21213;SDS011;10764;50.850;2.904;2023-12-04T01:55:52;1246.57;;;999.90;;
21213;SDS011;10764;50.850;2.904;2023-12-04T01:58:19;1244.57;;;999.90;;
21213;SDS011;10764;50.850;2.904;2023-12-04T02:00:47;1245.88;;;999.90;;
21213;SDS011;10764;50.850;2.904;2023-12-04T02:03:14;1247.38;;;999.90;;
21213;SDS011;10764;50.850;2.904;2023-12-04T02:05:43;1241.53;;;999.90;;
21213;SDS011;10764;50.850;2.904;2023-12-04T02:08:11;1244.88;;;999.90;;
21213;SDS011;10764;50.850;2.904;2023-12-04T02:10:38;1248.15;;;999.90;;
21213;SDS011;10764;50.850;2.904;2023-12-04T02:13:06;1246.45;;;999.90;;
21213;SDS011;10764;50.850;2.904;2023-12-04T02:15:33;1236.53;;;999.90;;
21213;SDS011;10764;50.850;2.904;2023-12-04T02:18:02;1238.32;;;999.90;;
21213;SDS011;10764;50.850;2.904;2023-12-04T02:20:30;1237.80;;;999.90;;
21213;SDS011;10764;50.850;2.904;2023-12-04T02:23:02;1236.97;;;999.90;;
21213;SDS011;10764;50.850;2.904;2023-12-04T02:25:31;1234.95;;;999.90;;
21213;SDS011;10764;50.850;2.904;2023-12-04T02:28:06;1236.57;;;999.90;;
21213;SDS011;10764;50.850;2.904;2023-12-04T02:30:37;1237.45;;;999.90;;
21213;SDS011;10764;50.850;2.904;2023-12-04T02:33:05;1246.70;;;999.90;;
21213;SDS011;10764;50.850;2.904;2023-12-04T02:35:34;1246.68;;;999.90;;
21213;SDS011;10764;50.850;2.904;2023-12-04T02:38:02;1247.82;;;999.90;;
21213;SDS011;10764;50.850;2.904;2023-12-04T02:40:29;1242.65;;;999.90;;
21213;SDS011;10764;50.850;2.904;2023-12-04T02:42:56;1243.53;;;999.90;;
21213;SDS011;10764;50.850;2.904;2023-12-04T02:45:24;1243.15;;;999.90;;
21213;SDS011;10764;50.850;2.904;2023-12-04T02:47:51;1244.93;;;999.90;;
21213;SDS011;10764;50.850;2.904;2023-12-04T02:50:18;1242.72;;;999.90;;
21213;SDS011;10764;50.850;2.904;2023-12-04T02:52:45;1244.00;;;999.90;;
21213;SDS011;10764;50.850;2.904;2023-12-04T02:55:12;1241.32;;;999.90;;
21213;SDS011;10764;50.850;2.904;2023-12-04T02:57:39;1243.43;;;999.90;;
21213;SDS011;10764;50.850;2.904;2023-12-04T03:00:06;1238.80;;;999.90;;
21213;SDS011;10764;50.850;2.904;2023-12-04T03:02:33;1240.00;;;999.90;;
21213;SDS011;10764;50.850;2.904;2023-12-04T03:05:00;1240.57;;;999.90;;
21213;SDS011;10764;50.850;2.904;2023-12-04T03:07:27;1243.63;;;999.90;;
21213;SDS011;10764;50.850;2.904;2023-12-04T03:09:54;1242.43;;;999.90;;
21213;SDS011;10764;50.850;2.904;2023-12-04T03:12:21;1241.88;;;999.90;;
21213;SDS011;10764;50.850;2.904;2023-12-04T03:14:48;1243.07;;;999.90;;
21213;SDS011;10764;50.850;2.904;2023-12-04T03:17:15;1242.38;;;999.90;;
21213;SDS011;10764;50.850;2.904;2023-12-04T03:19:42;1243.85;;;999.90;;
21213;SDS011;10764;50.850;2.904;2023-12-04T03:22:09;1239.93;;;999.90;;
21213;SDS011;10764;50.850;2.904;2023-12-04T03:24:36;1241.40;;;999.90;;
21213;SDS011;10764;50.850;2.904;2023-12-04T03:27:03;1240.97;;;999.90;;
21213;SDS011;10764;50.850;2.904;2023-12-04T03:29:30;1241.35;;;999.90;;
21213;SDS011;10764;50.850;2.904;2023-12-04T03:31:57;1236.82;;;999.90;;
21213;SDS011;10764;50.850;2.904;2023-12-04T03:34:24;1238.80;;;999.90;;
21213;SDS011;10764;50.850;2.904;2023-12-04T03:36:51;1242.30;;;999.90;;
21213;SDS011;10764;50.850;2.904;2023-12-04T03:39:18;1240.80;;;999.90;;
21213;SDS011;10764;50.850;2.904;2023-12-04T03:41:45;1238.65;;;999.90;;
21213;SDS011;10764;50.850;2.904;2023-12-04T03:44:13;1241.43;;;999.90;;
21213;SDS011;10764;50.850;2.904;2023-12-04T03:46:39;1241.05;;;999.90;;
21213;SDS011;10764;50.850;2.904;2023-12-04T03:49:06;1240.20;;;999.90;;
21213;SDS011;10764;50.850;2.904;2023-12-04T03:51:33;1238.95;;;999.90;;
21213;SDS011;10764;50.850;2.904;2023-12-04T03:54:00;1236.77;;;999.90;;
21213;SDS011;10764;50.850;2.904;2023-12-04T03:56:27;1235.88;;;999.90;;
21213;SDS011;10764;50.850;2.904;2023-12-04T03:58:54;1237.20;;;999.90;;
21213;SDS011;10764;50.850;2.904;2023-12-04T04:01:21;1234.80;;;999.90;;
21213;SDS011;10764;50.850;2.904;2023-12-04T04:03:48;1236.63;;;999.90;;
21213;SDS011;10764;50.850;2.904;2023-12-04T04:06:15;1235.50;;;999.90;;
21213;SDS011;10764;50.850;2.904;2023-12-04T04:08:42;1236.22;;;999.90;;
21213;SDS011;10764;50.850;2.904;2023-12-04T04:11:08;1235.78;;;999.90;;
21213;SDS011;10764;50.850;2.904;2023-12-04T04:13:35;1235.85;;;999.90;;
21213;SDS011;10764;50.850;2.904;2023-12-04T04:16:03;1234.93;;;999.90;;
21213;SDS011;10764;50.850;2.904;2023-12-04T04:18:31;1235.38;;;999.90;;
21213;SDS011;10764;50.850;2.904;2023-12-04T04:20:58;1236.22;;;999.90;;
21213;SDS011;10764;50.850;2.904;2023-12-04T04:23:25;1235.50;;;999.90;;
21213;SDS011;10764;50.850;2.904;2023-12-04T04:25:51;1236.20;;;999.90;;
21213;SDS011;10764;50.850;2.904;2023-12-04T04:28:18;1234.95;;;999.90;;
21213;SDS011;10764;50.850;2.904;2023-12-04T04:30:45;1232.28;;;999.90;;
21213;SDS011;10764;50.850;2.904;2023-12-04T04:33:12;1232.88;;;999.90;;
21213;SDS011;10764;50.850;2.904;2023-12-04T04:35:39;1233.75;;;999.90;;
21213;SDS011;10764;50.850;2.904;2023-12-04T04:38:06;1233.45;;;999.90;;
21213;SDS011;10764;50.850;2.904;2023-12-04T04:40:33;1231.45;;;999.90;;
21213;SDS011;10764;50.850;2.904;2023-12-04T04:43:00;1232.97;;;999.90;;
21213;SDS011;10764;50.850;2.904;2023-12-04T04:45:27;1231.82;;;999.90;;
21213;SDS011;10764;50.850;2.904;2023-12-04T04:47:54;1234.40;;;999.90;;
21213;SDS011;10764;50.850;2.904;2023-12-04T04:50:20;1234.65;;;999.90;;
21213;SDS011;10764;50.850;2.904;2023-12-04T04:52:47;1235.40;;;999.90;;
21213;SDS011;10764;50.850;2.904;2023-12-04T04:55:14;1232.23;;;999.90;;
21213;SDS011;10764;50.850;2.904;2023-12-04T04:58:01;1231.40;;;999.90;;
21213;SDS011;10764;50.850;2.904;2023-12-04T05:00:28;1234.30;;;999.90;;
21213;SDS011;10764;50.850;2.904;2023-12-04T05:02:55;1230.78;;;999.90;;
21213;SDS011;10764;50.850;2.904;2023-12-04T05:05:22;1231.97;;;999.90;;
21213;SDS011;10764;50.850;2.904;2023-12-04T05:07:49;1236.45;;;999.90;;
21213;SDS011;10764;50.850;2.904;2023-12-04T05:10:16;1230.57;;;999.90;;
21213;SDS011;10764;50.850;2.904;2023-12-04T05:12:43;1230.68;;;999.90;;
21213;SDS011;10764;50.850;2.904;2023-12-04T05:15:10;1231.68;;;999.90;;
21213;SDS011;10764;50.850;2.904;2023-12-04T05:17:37;1230.75;;;999.90;;
21213;SDS011;10764;50.850;2.904;2023-12-04T05:20:04;1231.07;;;999.90;;
21213;SDS011;10764;50.850;2.904;2023-12-04T05:22:31;1230.63;;;999.90;;
21213;SDS011;10764;50.850;2.904;2023-12-04T05:24:58;1230.03;;;999.90;;
21213;SDS011;10764;50.850;2.904;2023-12-04T05:27:25;1231.07;;;999.90;;
21213;SDS011;10764;50.850;2.904;2023-12-04T05:29:52;1229.45;;;999.90;;
21213;SDS011;10764;50.850;2.904;2023-12-04T05:32:19;1228.40;;;999.90;;
21213;SDS011;10764;50.850;2.904;2023-12-04T05:34:47;1231.03;;;999.90;;
21213;SDS011;10764;50.850;2.904;2023-12-04T05:37:14;1229.90;;;999.90;;
21213;SDS011;10764;50.850;2.904;2023-12-04T05:39:41;1230.70;;;999.90;;
21213;SDS011;10764;50.850;2.904;2023-12-04T05:42:08;1228.75;;;999.90;;
21213;SDS011;10764;50.850;2.904;2023-12-04T05:44:35;1232.60;;;999.90;;
21213;SDS011;10764;50.850;2.904;2023-12-04T05:47:02;1229.88;;;999.90;;
21213;SDS011;10764;50.850;2.904;2023-12-04T05:49:29;1230.32;;;999.90;;
21213;SDS011;10764;50.850;2.904;2023-12-04T05:51:57;1227.93;;;999.90;;
21213;SDS011;10764;50.850;2.904;2023-12-04T05:54:24;1230.65;;;999.90;;
21213;SDS011;10764;50.850;2.904;2023-12-04T05:56:51;1231.28;;;999.90;;
21213;SDS011;10764;50.850;2.904;2023-12-04T05:59:18;1231.65;;;999.90;;
21213;SDS011;10764;50.850;2.904;2023-12-04T06:01:45;1233.43;;;999.90;;
21213;SDS011;10764;50.850;2.904;2023-12-04T06:04:12;1230.35;;;999.90;;
21213;SDS011;10764;50.850;2.904;2023-12-04T06:06:39;1232.72;;;999.90;;
21213;SDS011;10764;50.850;2.904;2023-12-04T06:09:05;1234.38;;;999.90;;
21213;SDS011;10764;50.850;2.904;2023-12-04T06:11:32;1231.53;;;999.90;;
21213;SDS011;10764;50.850;2.904;2023-12-04T06:13:59;1232.70;;;999.90;;
21213;SDS011;10764;50.850;2.904;2023-12-04T06:16:26;1232.47;;;999.90;;
21213;SDS011;10764;50.850;2.904;2023-12-04T06:18:53;1231.25;;;999.90;;
21213;SDS011;10764;50.850;2.904;2023-12-04T06:21:20;1233.82;;;999.90;;
21213;SDS011;10764;50.850;2.904;2023-12-04T06:23:47;1233.55;;;999.90;;
21213;SDS011;10764;50.850;2.904;2023-12-04T06:26:14;1231.63;;;999.90;;
21213;SDS011;10764;50.850;2.904;2023-12-04T06:28:41;1231.60;;;999.90;;
21213;SDS011;10764;50.850;2.904;2023-12-04T06:31:09;1230.32;;;999.90;;
21213;SDS011;10764;50.850;2.904;2023-12-04T06:33:36;1233.47;;;999.90;;
21213;SDS011;10764;50.850;2.904;2023-12-04T06:36:04;1232.15;;;999.90;;
21213;SDS011;10764;50.850;2.904;2023-12-04T06:38:32;1231.95;;;999.90;;
21213;SDS011;10764;50.850;2.904;2023-12-04T06:41:04;1232.40;;;999.90;;
21213;SDS011;10764;50.850;2.904;2023-12-04T06:43:31;1232.67;;;999.90;;
21213;SDS011;10764;50.850;2.904;2023-12-04T06:45:59;1233.47;;;999.90;;
21213;SDS011;10764;50.850;2.904;2023-12-04T06:48:26;1234.05;;;999.90;;
21213;SDS011;10764;50.850;2.904;2023-12-04T06:50:53;1235.22;;;999.90;;
21213;SDS011;10764;50.850;2.904;2023-12-04T06:53:20;1234.25;;;999.90;;
21213;SDS011;10764;50.850;2.904;2023-12-04T06:55:47;1232.93;;;999.90;;
21213;SDS011;10764;50.850;2.904;2023-12-04T06:58:14;1230.40;;;999.90;;
21213;SDS011;10764;50.850;2.904;2023-12-04T07:00:41;1234.70;;;999.90;;
21213;SDS011;10764;50.850;2.904;2023-12-04T07:03:08;1234.63;;;999.90;;
21213;SDS011;10764;50.850;2.904;2023-12-04T07:05:35;1232.68;;;999.90;;
21213;SDS011;10764;50.850;2.904;2023-12-04T07:08:02;1233.85;;;999.90;;
21213;SDS011;10764;50.850;2.904;2023-12-04T07:10:30;1233.65;;;999.90;;
21213;SDS011;10764;50.850;2.904;2023-12-04T07:13:00;1235.43;;;999.90;;
21213;SDS011;10764;50.850;2.904;2023-12-04T07:15:27;1235.38;;;999.90;;
21213;SDS011;10764;50.850;2.904;2023-12-04T07:17:54;1230.13;;;999.90;;
21213;SDS011;10764;50.850;2.904;2023-12-04T07:20:23;1237.93;;;999.90;;
21213;SDS011;10764;50.850;2.904;2023-12-04T07:22:51;1235.03;;;999.90;;
21213;SDS011;10764;50.850;2.904;2023-12-04T07:25:18;1236.30;;;999.90;;
21213;SDS011;10764;50.850;2.904;2023-12-04T07:27:45;1237.73;;;999.90;;
21213;SDS011;10764;50.850;2.904;2023-12-04T07:30:12;1238.40;;;999.90;;
21213;SDS011;10764;50.850;2.904;2023-12-04T07:32:44;1234.03;;;999.90;;
21213;SDS011;10764;50.850;2.904;2023-12-04T07:35:12;1240.05;;;999.90;;
21213;SDS011;10764;50.850;2.904;2023-12-04T07:37:40;1240.05;;;999.90;;
21213;SDS011;10764;50.850;2.904;2023-12-04T07:40:08;1240.25;;;999.90;;
21213;SDS011;10764;50.850;2.904;2023-12-04T07:42:38;1235.30;;;999.90;;
21213;SDS011;10764;50.850;2.904;2023-12-04T07:45:08;1237.25;;;999.90;;
21213;SDS011;10764;50.850;2.904;2023-12-04T07:47:37;1234.10;;;999.90;;
21213;SDS011;10764;50.850;2.904;2023-12-04T07:50:05;1234.05;;;999.90;;
21213;SDS011;10764;50.850;2.904;2023-12-04T07:52:32;1230.57;;;999.90;;
21213;SDS011;10764;50.850;2.904;2023-12-04T07:54:59;1227.45;;;999.90;;
21213;SDS011;10764;50.850;2.904;2023-12-04T07:57:27;1227.75;;;999.90;;
21213;SDS011;10764;50.850;2.904;2023-12-04T07:59:54;1226.97;;;999.90;;
21213;SDS011;10764;50.850;2.904;2023-12-04T08:02:23;1228.57;;;999.90;;
21213;SDS011;10764;50.850;2.904;2023-12-04T08:04:52;1226.82;;;999.90;;
21213;SDS011;10764;50.850;2.904;2023-12-04T08:07:20;1226.90;;;999.90;;
21213;SDS011;10764;50.850;2.904;2023-12-04T08:09:48;1228.13;;;999.90;;
21213;SDS011;10764;50.850;2.904;2023-12-04T08:12:15;1228.53;;;999.90;;
21213;SDS011;10764;50.850;2.904;2023-12-04T08:14:42;1228.20;;;999.90;;
21213;SDS011;10764;50.850;2.904;2023-12-04T08:17:09;1227.75;;;999.90;;
21213;SDS011;10764;50.850;2.904;2023-12-04T08:19:36;1228.15;;;999.90;;
21213;SDS011;10764;50.850;2.904;2023-12-04T08:22:04;1223.22;;;999.90;;
21213;SDS011;10764;50.850;2.904;2023-12-04T08:24:31;1226.25;;;999.90;;
21213;SDS011;10764;50.850;2.904;2023-12-04T08:26:58;1227.72;;;999.90;;
21213;SDS011;10764;50.850;2.904;2023-12-04T08:29:25;1229.50;;;999.90;;
21213;SDS011;10764;50.850;2.904;2023-12-04T08:31:54;1225.18;;;999.90;;
21213;SDS011;10764;50.850;2.904;2023-12-04T08:34:21;1228.43;;;999.90;;
21213;SDS011;10764;50.850;2.904;2023-12-04T08:36:49;1222.63;;;999.90;;
21213;SDS011;10764;50.850;2.904;2023-12-04T08:39:16;1225.75;;;999.90;;
21213;SDS011;10764;50.850;2.904;2023-12-04T08:41:46;1301.18;;;999.90;;
21213;SDS011;10764;50.850;2.904;2023-12-04T08:44:27;1256.75;;;999.90;;
21213;SDS011;10764;50.850;2.904;2023-12-04T08:46:54;1250.00;;;999.90;;
21213;SDS011;10764;50.850;2.904;2023-12-04T08:49:24;1130.65;;;999.90;;
21213;SDS011;10764;50.850;2.904;2023-12-04T08:52:05;1146.75;;;999.90;;
21213;SDS011;10764;50.850;2.904;2023-12-04T08:54:32;1148.70;;;999.90;;
21213;SDS011;10764;50.850;2.904;2023-12-04T08:56:59;1150.82;;;999.90;;
21213;SDS011;10764;50.850;2.904;2023-12-04T08:59:30;1153.72;;;999.90;;
21213;SDS011;10764;50.850;2.904;2023-12-04T09:01:59;1141.17;;;999.90;;
21213;SDS011;10764;50.850;2.904;2023-12-04T09:04:32;1148.30;;;999.90;;
21213;SDS011;10764;50.850;2.904;2023-12-04T09:07:00;1145.75;;;999.90;;
21213;SDS011;10764;50.850;2.904;2023-12-04T09:09:35;1141.33;;;999.90;;
21213;SDS011;10764;50.850;2.904;2023-12-04T09:12:04;1132.30;;;999.90;;
21213;SDS011;10764;50.850;2.904;2023-12-04T09:14:33;1131.43;;;999.90;;
21213;SDS011;10764;50.850;2.904;2023-12-04T09:19:31;1143.80;;;999.90;;
21213;SDS011;10764;50.850;2.904;2023-12-04T09:21:59;1156.85;;;999.90;;
21213;SDS011;10764;50.850;2.904;2023-12-04T09:24:39;1154.75;;;999.90;;
21213;SDS011;10764;50.850;2.904;2023-12-04T09:27:08;1156.82;;;999.90;;
21213;SDS011;10764;50.850;2.904;2023-12-04T09:29:36;1160.40;;;999.90;;
21213;SDS011;10764;50.850;2.904;2023-12-04T09:32:04;1160.40;;;999.90;;
21213;SDS011;10764;50.850;2.904;2023-12-04T09:34:32;1159.85;;;999.90;;
21213;SDS011;10764;50.850;2.904;2023-12-04T09:37:00;1160.53;;;999.90;;
21213;SDS011;10764;50.850;2.904;2023-12-04T09:39:38;1176.60;;;999.90;;
21213;SDS011;10764;50.850;2.904;2023-12-04T09:42:12;1203.18;;;999.90;;
21213;SDS011;10764;50.850;2.904;2023-12-04T09:44:40;1196.90;;;999.90;;
21213;SDS011;10764;50.850;2.904;2023-12-04T09:47:13;1205.53;;;999.90;;
21213;SDS011;10764;50.850;2.904;2023-12-04T09:49:45;1206.13;;;999.90;;
21213;SDS011;10764;50.850;2.904;2023-12-04T09:52:14;1167.43;;;999.90;;
21213;SDS011;10764;50.850;2.904;2023-12-04T09:54:41;1166.13;;;999.90;;
21213;SDS011;10764;50.850;2.904;2023-12-04T09:57:09;1176.75;;;999.90;;
21213;SDS011;10764;50.850;2.904;2023-12-04T09:59:37;1183.55;;;999.90;;
21213;SDS011;10764;50.850;2.904;2023-12-04T10:02:05;1174.85;;;999.90;;
21213;SDS011;10764;50.850;2.904;2023-12-04T10:04:33;1172.43;;;999.90;;
21213;SDS011;10764;50.850;2.904;2023-12-04T10:07:00;1187.88;;;999.90;;
21213;SDS011;10764;50.850;2.904;2023-12-04T10:09:29;1199.50;;;999.90;;
21213;SDS011;10764;50.850;2.904;2023-12-04T10:11:58;1215.30;;;999.90;;
21213;SDS011;10764;50.850;2.904;2023-12-04T10:14:26;1206.07;;;999.90;;
21213;SDS011;10764;50.850;2.904;2023-12-04T10:16:53;1223.38;;;999.90;;
21213;SDS011;10764;50.850;2.904;2023-12-04T10:19:21;1196.97;;;999.90;;
21213;SDS011;10764;50.850;2.904;2023-12-04T10:21:57;1165.13;;;999.90;;
21213;SDS011;10764;50.850;2.904;2023-12-04T10:24:27;1145.63;;;999.90;;
21213;SDS011;10764;50.850;2.904;2023-12-04T10:27:03;1150.03;;;999.90;;
21213;SDS011;10764;50.850;2.904;2023-12-04T10:29:43;1266.35;;;999.90;;
21213;SDS011;10764;50.850;2.904;2023-12-04T10:32:12;1296.85;;;999.90;;
21213;SDS011;10764;50.850;2.904;2023-12-04T10:34:42;1290.07;;;999.90;;
21213;SDS011;10764;50.850;2.904;2023-12-04T10:37:09;1281.45;;;999.90;;
21213;SDS011;10764;50.850;2.904;2023-12-04T10:39:48;1284.97;;;999.90;;
21213;SDS011;10764;50.850;2.904;2023-12-04T10:42:25;1288.05;;;999.90;;
21213;SDS011;10764;50.850;2.904;2023-12-04T10:44:57;1295.00;;;999.90;;
21213;SDS011;10764;50.850;2.904;2023-12-04T10:47:25;1301.43;;;999.90;;
21213;SDS011;10764;50.850;2.904;2023-12-04T10:50:07;1298.10;;;999.90;;
21213;SDS011;10764;50.850;2.904;2023-12-04T10:52:35;1227.57;;;999.90;;
21213;SDS011;10764;50.850;2.904;2023-12-04T10:55:05;1229.07;;;999.90;;
21213;SDS011;10764;50.850;2.904;2023-12-04T10:57:37;1252.10;;;999.90;;
21213;SDS011;10764;50.850;2.904;2023-12-04T11:00:06;1274.28;;;999.90;;
21213;SDS011;10764;50.850;2.904;2023-12-04T11:02:35;1255.88;;;999.90;;
21213;SDS011;10764;50.850;2.904;2023-12-04T11:05:08;1266.10;;;999.90;;
21213;SDS011;10764;50.850;2.904;2023-12-04T11:07:41;1266.40;;;999.90;;
21213;SDS011;10764;50.850;2.904;2023-12-04T11:10:50;1240.07;;;999.90;;
21213;SDS011;10764;50.850;2.904;2023-12-04T11:13:21;1234.38;;;999.90;;
21213;SDS011;10764;50.850;2.904;2023-12-04T11:15:53;1240.50;;;999.90;;
21213;SDS011;10764;50.850;2.904;2023-12-04T11:18:26;1241.00;;;999.90;;
21213;SDS011;10764;50.850;2.904;2023-12-04T11:20:58;1247.53;;;999.90;;
21213;SDS011;10764;50.850;2.904;2023-12-04T11:23:32;1251.20;;;999.90;;
21213;SDS011;10764;50.850;2.904;2023-12-04T11:26:01;1253.90;;;999.90;;
21213;SDS011;10764;50.850;2.904;2023-12-04T11:28:30;1251.00;;;999.90;;
21213;SDS011;10764;50.850;2.904;2023-12-04T11:30:59;1255.18;;;999.90;;
21213;SDS011;10764;50.850;2.904;2023-12-04T11:33:27;1265.97;;;999.90;;
21213;SDS011;10764;50.850;2.904;2023-12-04T11:36:05;1253.75;;;999.90;;
21213;SDS011;10764;50.850;2.904;2023-12-04T11:38:43;1248.40;;;999.90;;
21213;SDS011;10764;50.850;2.904;2023-12-04T11:41:19;1240.18;;;999.90;;
21213;SDS011;10764;50.850;2.904;2023-12-04T11:43:52;1241.63;;;999.90;;
21213;SDS011;10764;50.850;2.904;2023-12-04T11:46:22;1243.07;;;999.90;;
21213;SDS011;10764;50.850;2.904;2023-12-04T11:48:54;1239.50;;;999.90;;
21213;SDS011;10764;50.850;2.904;2023-12-04T11:54:08;1241.75;;;999.90;;
21213;SDS011;10764;50.850;2.904;2023-12-04T11:56:36;1243.00;;;999.90;;
21213;SDS011;10764;50.850;2.904;2023-12-04T11:59:03;1241.97;;;999.90;;
21213;SDS011;10764;50.850;2.904;2023-12-04T12:01:35;1242.65;;;999.90;;
21213;SDS011;10764;50.850;2.904;2023-12-04T12:04:06;1236.63;;;999.90;;
21213;SDS011;10764;50.850;2.904;2023-12-04T12:06:34;1238.57;;;999.90;;
21213;SDS011;10764;50.850;2.904;2023-12-04T12:09:01;1240.33;;;999.90;;
21213;SDS011;10764;50.850;2.904;2023-12-04T12:11:28;1238.13;;;999.90;;
21213;SDS011;10764;50.850;2.904;2023-12-04T12:13:55;1237.88;;;999.90;;
21213;SDS011;10764;50.850;2.904;2023-12-04T12:16:22;1235.20;;;999.90;;
21213;SDS011;10764;50.850;2.904;2023-12-04T12:18:49;1236.68;;;999.90;;
21213;SDS011;10764;50.850;2.904;2023-12-04T12:21:17;1238.30;;;999.90;;
21213;SDS011;10764;50.850;2.904;2023-12-04T12:23:45;1237.65;;;999.90;;
21213;SDS011;10764;50.850;2.904;2023-12-04T12:26:12;1241.28;;;999.90;;
21213;SDS011;10764;50.850;2.904;2023-12-04T12:28:39;1241.30;;;999.90;;
21213;SDS011;10764;50.850;2.904;2023-12-04T12:31:06;1240.57;;;999.90;;
21213;SDS011;10764;50.850;2.904;2023-12-04T12:33:33;1236.82;;;999.90;;
21213;SDS011;10764;50.850;2.904;2023-12-04T12:36:00;1239.97;;;999.90;;
21213;SDS011;10764;50.850;2.904;2023-12-04T12:38:31;1239.77;;;999.90;;
21213;SDS011;10764;50.850;2.904;2023-12-04T12:41:05;1242.57;;;999.90;;
21213;SDS011;10764;50.850;2.904;2023-12-04T12:43:33;1241.20;;;999.90;;
21213;SDS011;10764;50.850;2.904;2023-12-04T12:46:01;1239.22;;;999.90;;
21213;SDS011;10764;50.850;2.904;2023-12-04T12:48:31;1238.07;;;999.90;;
21213;SDS011;10764;50.850;2.904;2023-12-04T12:50:59;1238.13;;;999.90;;
21213;SDS011;10764;50.850;2.904;2023-12-04T12:53:28;1236.80;;;999.90;;
21213;SDS011;10764;50.850;2.904;2023-12-04T12:55:59;1237.15;;;999.90;;
21213;SDS011;10764;50.850;2.904;2023-12-04T12:58:27;1238.70;;;999.90;;
21213;SDS011;10764;50.850;2.904;2023-12-04T13:00:54;1237.50;;;999.90;;
21213;SDS011;10764;50.850;2.904;2023-12-04T13:03:22;1240.15;;;999.90;;
21213;SDS011;10764;50.850;2.904;2023-12-04T13:05:49;1238.13;;;999.90;;
21213;SDS011;10764;50.850;2.904;2023-12-04T13:08:16;1238.25;;;999.90;;
21213;SDS011;10764;50.850;2.904;2023-12-04T13:10:43;1238.85;;;999.90;;
21213;SDS011;10764;50.850;2.904;2023-12-04T13:13:11;1240.35;;;999.90;;
21213;SDS011;10764;50.850;2.904;2023-12-04T13:15:39;1236.60;;;999.90;;
21213;SDS011;10764;50.850;2.904;2023-12-04T13:18:08;1236.03;;;999.90;;
21213;SDS011;10764;50.850;2.904;2023-12-04T13:20:35;1236.88;;;999.90;;
21213;SDS011;10764;50.850;2.904;2023-12-04T13:23:02;1235.10;;;999.90;;
21213;SDS011;10764;50.850;2.904;2023-12-04T13:25:29;1236.82;;;999.90;;
21213;SDS011;10764;50.850;2.904;2023-12-04T13:27:56;1237.72;;;999.90;;
21213;SDS011;10764;50.850;2.904;2023-12-04T13:30:24;1238.03;;;999.90;;
21213;SDS011;10764;50.850;2.904;2023-12-04T13:32:52;1236.03;;;999.90;;
21213;SDS011;10764;50.850;2.904;2023-12-04T13:35:19;1239.13;;;999.90;;
21213;SDS011;10764;50.850;2.904;2023-12-04T13:37:46;1235.72;;;999.90;;
21213;SDS011;10764;50.850;2.904;2023-12-04T13:40:20;1238.20;;;999.90;;
21213;SDS011;10764;50.850;2.904;2023-12-04T13:42:48;1233.78;;;999.90;;
21213;SDS011;10764;50.850;2.904;2023-12-04T13:45:33;1234.72;;;999.90;;
21213;SDS011;10764;50.850;2.904;2023-12-04T13:48:01;1237.05;;;999.90;;
21213;SDS011;10764;50.850;2.904;2023-12-04T13:50:28;1236.40;;;999.90;;
21213;SDS011;10764;50.850;2.904;2023-12-04T13:52:55;1234.83;;;999.90;;
21213;SDS011;10764;50.850;2.904;2023-12-04T13:55:24;1237.10;;;999.90;;